createdAt,value
2019-05-29T00:00:12.928Z,4.50
2019-05-29T00:02:42.024Z,4.40
2019-05-29T00:05:12.175Z,4.10
2019-05-29T00:07:41.316Z,4.42
2019-05-29T00:10:12.264Z,3.67
2019-05-29T00:12:41.136Z,4.37
2019-05-29T00:15:10.835Z,4.07
2019-05-29T00:17:39.665Z,3.63
2019-05-29T00:20:10.482Z,4.30
2019-05-29T00:22:39.363Z,3.73
2019-05-29T00:25:08.940Z,4.33
2019-05-29T00:27:37.935Z,4.30
2019-05-29T00:30:07.366Z,4.67
2019-05-29T00:32:36.866Z,4.00
2019-05-29T00:35:06.446Z,4.80
2019-05-29T00:37:35.197Z,4.80
2019-05-29T00:40:04.849Z,4.70
2019-05-29T00:42:33.863Z,4.63
2019-05-29T00:45:02.929Z,4.13
2019-05-29T00:47:32.539Z,3.63
2019-05-29T00:50:01.324Z,3.57
2019-05-29T00:52:30.225Z,3.53
2019-05-29T00:54:59.003Z,3.90
2019-05-29T00:57:28.078Z,3.83
2019-05-29T00:59:56.996Z,3.37
2019-05-29T01:02:25.870Z,3.50
2019-05-29T01:04:54.670Z,3.57
2019-05-29T01:07:23.493Z,3.30
2019-05-29T01:09:52.475Z,2.23
2019-05-29T01:12:21.403Z,2.77
2019-05-29T01:14:50.816Z,3.20
2019-05-29T01:17:20.121Z,2.83
2019-05-29T01:19:49.005Z,4.03
2019-05-29T01:22:18.705Z,3.47
2019-05-29T01:24:47.791Z,3.07
2019-05-29T01:27:16.857Z,3.07
2019-05-29T01:29:45.663Z,3.00
2019-05-29T01:32:15.489Z,3.00
2019-05-29T01:34:44.414Z,2.70
2019-05-29T01:37:14.007Z,2.70
2019-05-29T01:39:42.913Z,2.77
2019-05-29T01:42:11.830Z,2.70
2019-05-29T01:44:40.647Z,2.47
2019-05-29T01:47:09.637Z,2.67
2019-05-29T01:49:38.584Z,2.50
2019-05-29T01:52:07.395Z,2.53
2019-05-29T01:54:36.292Z,3.23
2019-05-29T01:57:05.229Z,2.75
2019-05-29T01:59:34.238Z,2.97
2019-05-29T02:02:03.042Z,2.90
2019-05-29T02:04:31.814Z,2.83
2019-05-29T02:07:00.698Z,2.47
2019-05-29T02:09:29.610Z,2.30
2019-05-29T02:11:58.548Z,2.30
2019-05-29T02:14:27.332Z,2.70
2019-05-29T02:16:56.337Z,2.60
2019-05-29T02:19:25.345Z,2.50
2019-05-29T02:21:54.256Z,2.40
2019-05-29T02:24:23.328Z,2.07
2019-05-29T02:26:52.261Z,1.93
2019-05-29T02:29:21.269Z,2.23
2019-05-29T02:31:50.281Z,2.00
2019-05-29T02:34:20.014Z,2.20
2019-05-29T02:36:49.233Z,2.10
2019-05-29T02:39:18.759Z,1.87
2019-05-29T02:41:48.283Z,2.10
2019-05-29T02:44:17.171Z,2.23
2019-05-29T02:46:46.411Z,1.77
2019-05-29T02:49:16.699Z,2.17
2019-05-29T02:51:45.668Z,2.07
2019-05-29T02:54:14.650Z,1.70
2019-05-29T02:56:43.719Z,1.90
2019-05-29T02:59:12.654Z,1.80
2019-05-29T03:01:41.570Z,2.03
2019-05-29T03:04:10.458Z,1.97
2019-05-29T03:06:39.469Z,2.10
2019-05-29T03:09:08.481Z,2.10
2019-05-29T03:11:37.572Z,2.57
2019-05-29T03:14:06.543Z,2.00
2019-05-29T03:16:35.474Z,2.07
2019-05-29T03:19:04.744Z,2.37
2019-05-29T03:21:34.764Z,2.70
2019-05-29T03:24:03.793Z,2.63
2019-05-29T03:26:34.786Z,2.80
2019-05-29T03:29:03.327Z,2.98
2019-05-29T03:31:41.888Z,2.87
2019-05-29T03:34:02.868Z,3.03
2019-05-29T03:36:38.435Z,2.67
2019-05-29T03:39:02.328Z,2.50
2019-05-29T03:41:32.694Z,2.50
2019-05-29T03:44:02.218Z,2.60
2019-05-29T03:46:39.989Z,2.60
2019-05-29T03:49:01.798Z,2.87
2019-05-29T03:51:32.483Z,2.70
2019-05-29T03:54:01.462Z,2.93
2019-05-29T03:56:30.716Z,2.63
2019-05-29T03:59:00.389Z,3.17
2019-05-29T04:01:31.286Z,3.10
2019-05-29T04:03:59.983Z,2.40
2019-05-29T04:06:29.183Z,3.03
2019-05-29T04:08:58.032Z,2.40
2019-05-29T04:11:27.441Z,2.97
2019-05-29T04:13:56.580Z,3.13
2019-05-29T04:16:27.622Z,3.00
2019-05-29T04:18:57.750Z,2.50
2019-05-29T04:21:27.921Z,3.10
2019-05-29T04:24:00.297Z,2.27
2019-05-29T04:26:32.326Z,2.30
2019-05-29T04:29:01.695Z,2.30
2019-05-29T04:31:32.366Z,2.70
2019-05-29T04:34:01.347Z,2.47
2019-05-29T04:36:30.704Z,2.58
2019-05-29T04:39:01.031Z,2.43
2019-05-29T04:41:30.840Z,2.53
2019-05-29T04:43:59.812Z,2.97
2019-05-29T04:46:30.025Z,2.53
2019-05-29T04:48:59.438Z,2.43
2019-05-29T04:51:29.120Z,2.43
2019-05-29T04:53:58.168Z,1.93
2019-05-29T04:56:26.929Z,1.97
2019-05-29T04:58:55.948Z,2.87
2019-05-29T05:01:24.845Z,2.67
2019-05-29T05:03:53.734Z,2.03
2019-05-29T05:06:22.597Z,2.00
2019-05-29T05:08:51.459Z,2.30
2019-05-29T05:11:20.481Z,1.73
2019-05-29T05:13:49.469Z,1.80
2019-05-29T05:16:18.378Z,1.73
2019-05-29T05:18:47.269Z,2.07
2019-05-29T05:21:16.160Z,1.87
2019-05-29T05:23:45.026Z,1.50
2019-05-29T05:26:13.964Z,1.70
2019-05-29T05:28:45.665Z,1.50
2019-05-29T05:31:13.533Z,1.50
2019-05-29T05:33:42.505Z,1.35
2019-05-29T05:36:11.556Z,1.60
2019-05-29T05:38:41.099Z,1.67
2019-05-29T05:41:10.166Z,1.43
2019-05-29T05:43:39.086Z,2.10
2019-05-29T05:46:07.943Z,1.20
2019-05-29T05:48:37.133Z,1.53
2019-05-29T05:51:06.266Z,1.00
2019-05-29T05:53:35.441Z,1.23
2019-05-29T05:56:04.526Z,1.33
2019-05-29T05:58:33.772Z,1.00
2019-05-29T06:01:02.605Z,1.10
2019-05-29T06:03:31.876Z,1.23
2019-05-29T06:06:00.849Z,1.30
2019-05-29T06:08:29.795Z,1.40
2019-05-29T06:10:58.654Z,1.00
2019-05-29T06:13:27.484Z,1.00
2019-05-29T06:15:58.803Z,1.40
2019-05-29T06:18:28.023Z,1.40
2019-05-29T06:20:56.954Z,0.90
2019-05-29T06:23:25.714Z,1.03
2019-05-29T06:25:54.607Z,1.20
2019-05-29T06:28:23.894Z,1.27
2019-05-29T06:30:52.899Z,1.37
2019-05-29T06:33:21.771Z,1.20
2019-05-29T06:35:51.385Z,0.80
2019-05-29T06:38:20.346Z,0.83
2019-05-29T06:40:49.370Z,0.97
2019-05-29T06:43:23.655Z,0.87
2019-05-29T06:45:54.733Z,1.10
2019-05-29T06:48:41.483Z,0.70
2019-05-29T06:50:57.447Z,0.80
2019-05-29T06:53:27.009Z,1.00
2019-05-29T06:55:57.588Z,1.17
2019-05-29T06:58:26.760Z,1.30
2019-05-29T07:00:55.740Z,1.40
2019-05-29T07:03:24.717Z,1.07
2019-05-29T07:05:53.704Z,0.80
2019-05-29T07:08:37.581Z,1.03
2019-05-29T07:10:53.163Z,1.13
2019-05-29T07:13:22.158Z,1.17
2019-05-29T07:15:51.121Z,0.83
2019-05-29T07:18:20.115Z,1.23
2019-05-29T07:20:49.100Z,1.00
2019-05-29T07:23:18.017Z,1.27
2019-05-29T07:25:47.436Z,0.70
2019-05-29T07:28:16.456Z,1.10
2019-05-29T07:30:53.865Z,0.80
2019-05-29T07:33:16.154Z,0.80
2019-05-29T07:35:45.682Z,0.90
2019-05-29T07:38:14.849Z,0.87
2019-05-29T07:40:47.148Z,0.90
2019-05-29T07:43:14.189Z,0.60
2019-05-29T07:45:44.051Z,0.80
2019-05-29T07:48:13.097Z,0.93
2019-05-29T07:50:42.246Z,0.70
2019-05-29T07:53:11.142Z,0.90
2019-05-29T07:55:40.428Z,0.97
2019-05-29T07:58:09.264Z,1.00
2019-05-29T08:01:02.693Z,0.80
2019-05-29T08:03:09.756Z,0.80
2019-05-29T08:05:39.232Z,0.70
2019-05-29T08:08:08.296Z,0.70
2019-05-29T08:10:37.281Z,0.77
2019-05-29T08:13:06.286Z,1.00
2019-05-29T08:15:49.197Z,0.97
2019-05-29T08:18:06.085Z,0.97
2019-05-29T08:20:35.110Z,0.80
2019-05-29T08:23:04.144Z,1.00
2019-05-29T08:25:33.143Z,1.33
2019-05-29T08:28:01.943Z,0.90
2019-05-29T08:30:31.066Z,1.03
2019-05-29T08:33:00.031Z,0.90
2019-05-29T08:35:29.081Z,0.97
2019-05-29T08:37:58.059Z,1.23
2019-05-29T08:40:27.011Z,1.10
2019-05-29T08:42:56.002Z,1.50
2019-05-29T08:45:25.011Z,1.23
2019-05-29T08:47:54.066Z,1.23
2019-05-29T08:50:22.996Z,1.10
2019-05-29T08:52:52.317Z,1.30
2019-05-29T08:55:21.455Z,1.13
2019-05-29T08:57:50.505Z,0.93
2019-05-29T09:00:20.827Z,1.40
2019-05-29T09:02:51.119Z,1.20
2019-05-29T09:05:20.214Z,1.40
2019-05-29T09:07:50.061Z,0.90
2019-05-29T09:10:19.999Z,0.83
2019-05-29T09:12:56.778Z,0.80
2019-05-29T09:15:21.438Z,1.27
2019-05-29T09:17:50.902Z,1.27
2019-05-29T09:20:34.102Z,1.10
2019-05-29T09:22:50.412Z,1.30
2019-05-29T09:25:21.067Z,1.20
2019-05-29T09:27:50.085Z,1.00
2019-05-29T09:30:20.117Z,1.00
2019-05-29T09:32:52.038Z,0.90
2019-05-29T09:35:21.619Z,1.30
2019-05-29T09:37:50.737Z,0.97
2019-05-29T09:40:21.042Z,1.10
2019-05-29T09:42:50.191Z,0.90
2019-05-29T09:45:19.576Z,1.57
2019-05-29T09:47:49.107Z,0.70
2019-05-29T09:50:18.800Z,0.97
2019-05-29T09:52:49.036Z,1.20
2019-05-29T09:55:19.385Z,1.20
2019-05-29T09:57:48.363Z,2.17
2019-05-29T10:00:17.912Z,1.43
2019-05-29T10:02:46.927Z,0.97
2019-05-29T10:05:16.065Z,1.30
2019-05-29T10:07:44.957Z,1.10
2019-05-29T10:10:14.248Z,1.10
2019-05-29T10:12:43.294Z,0.90
2019-05-29T10:15:14.137Z,0.63
2019-05-29T10:17:43.199Z,0.70
2019-05-29T10:20:13.713Z,0.70
2019-05-29T10:22:42.622Z,0.60
2019-05-29T10:25:12.245Z,0.73
2019-05-29T10:27:41.085Z,1.50
2019-05-29T10:30:10.976Z,0.90
2019-05-29T10:32:39.951Z,1.23
2019-05-29T10:35:09.669Z,1.30
2019-05-29T10:37:38.562Z,1.10
2019-05-29T10:40:08.948Z,0.70
2019-05-29T10:42:38.215Z,0.50
2019-05-29T10:45:08.212Z,0.47
2019-05-29T10:47:37.178Z,0.67
2019-05-29T10:50:06.778Z,0.60
2019-05-29T10:52:35.650Z,0.60
2019-05-29T10:55:05.016Z,0.73
2019-05-29T10:57:33.979Z,0.70
2019-05-29T11:00:03.042Z,0.70
2019-05-29T11:02:31.990Z,0.50
2019-05-29T11:05:01.104Z,0.80
2019-05-29T11:07:29.970Z,0.60
2019-05-29T11:09:58.785Z,0.80
2019-05-29T11:12:28.006Z,0.50
2019-05-29T11:14:57.137Z,0.70
2019-05-29T11:17:26.210Z,0.50
2019-05-29T11:19:58.282Z,0.70
2019-05-29T11:22:27.466Z,0.80
2019-05-29T11:24:56.729Z,1.33
2019-05-29T11:27:26.368Z,1.43
2019-05-29T11:29:56.940Z,1.70
2019-05-29T11:32:26.036Z,1.07
2019-05-29T11:34:55.556Z,3.27
2019-05-29T11:37:24.560Z,2.00
2019-05-29T11:39:54.882Z,1.83
2019-05-29T11:42:27.284Z,1.10
2019-05-29T11:44:55.267Z,3.40
2019-05-29T11:47:24.259Z,1.33
2019-05-29T11:49:53.257Z,1.30
2019-05-29T11:52:25.015Z,1.63
2019-05-29T11:54:56.542Z,2.33
2019-05-29T11:57:23.613Z,1.93
2019-05-29T11:59:53.737Z,1.20
2019-05-29T12:02:22.991Z,0.87
2019-05-29T12:04:53.011Z,1.00
2019-05-29T12:07:21.971Z,0.97
2019-05-29T12:09:51.418Z,1.60
2019-05-29T12:12:20.366Z,1.10
2019-05-29T12:15:00.663Z,1.43
2019-05-29T12:17:19.966Z,10.83
2019-05-29T12:19:48.889Z,7.13
2019-05-29T12:22:17.968Z,1.37
2019-05-29T12:24:46.850Z,0.90
2019-05-29T12:27:15.865Z,0.70
2019-05-29T12:29:44.770Z,0.70
2019-05-29T12:32:13.808Z,0.70
2019-05-29T12:34:53.120Z,0.50
2019-05-29T12:37:15.064Z,0.90
2019-05-29T12:39:43.893Z,0.50
2019-05-29T12:42:12.771Z,0.70
2019-05-29T12:44:41.656Z,0.87
2019-05-29T12:47:10.602Z,0.60
2019-05-29T12:49:39.450Z,0.80
2019-05-29T12:52:09.405Z,0.90
2019-05-29T12:54:38.916Z,1.10
2019-05-29T12:57:08.043Z,1.00
2019-05-29T12:59:39.327Z,0.70
2019-05-29T13:02:08.408Z,0.90
2019-05-29T13:05:06.357Z,0.73
2019-05-29T13:07:08.200Z,0.90
2019-05-29T13:09:37.225Z,0.87
2019-05-29T13:12:06.311Z,0.70
2019-05-29T13:14:35.277Z,0.80
2019-05-29T13:17:05.175Z,0.80
2019-05-29T13:19:34.353Z,0.60
2019-05-29T13:22:03.596Z,0.83
2019-05-29T13:24:32.735Z,0.90
2019-05-29T13:27:01.871Z,1.10
2019-05-29T13:29:30.974Z,1.00
2019-05-29T13:32:01.994Z,0.80
2019-05-29T13:34:30.561Z,0.60
2019-05-29T13:37:03.432Z,1.30
2019-05-29T13:39:30.128Z,1.43
2019-05-29T13:42:04.355Z,0.80
2019-05-29T13:44:29.531Z,1.20
2019-05-29T13:46:59.892Z,0.50
2019-05-29T13:49:28.772Z,0.50
2019-05-29T13:51:59.064Z,0.60
2019-05-29T13:54:28.099Z,0.70
2019-05-29T13:56:58.976Z,0.40
2019-05-29T13:59:27.705Z,0.50
2019-05-29T14:01:58.277Z,0.45
2019-05-29T14:04:27.483Z,0.40
2019-05-29T14:06:56.394Z,0.40
2019-05-29T14:09:25.374Z,0.57
2019-05-29T14:11:54.316Z,0.47
2019-05-29T14:14:23.207Z,0.30
2019-05-29T14:16:52.111Z,0.50
2019-05-29T14:19:21.101Z,0.70
2019-05-29T14:21:50.188Z,0.43
2019-05-29T14:24:28.365Z,0.30
2019-05-29T14:26:49.901Z,0.30
2019-05-29T14:29:18.699Z,0.30
2019-05-29T14:31:47.652Z,0.50
2019-05-29T14:34:16.648Z,0.30
2019-05-29T14:36:45.551Z,0.40
2019-05-29T14:39:14.507Z,0.40
2019-05-29T14:41:43.488Z,0.20
2019-05-29T14:44:12.307Z,0.40
2019-05-29T14:46:41.168Z,0.80
2019-05-29T14:49:10.894Z,1.55
2019-05-29T14:51:40.324Z,0.80
2019-05-29T14:54:10.878Z,0.70
2019-05-29T14:56:40.137Z,0.60
2019-05-29T14:59:09.450Z,0.40
2019-05-29T15:01:38.346Z,0.40
2019-05-29T15:04:07.646Z,0.40
2019-05-29T15:06:36.600Z,0.40
2019-05-29T15:09:07.684Z,0.40
2019-05-29T15:11:36.615Z,0.50
2019-05-29T15:14:06.154Z,0.80
2019-05-29T15:16:35.009Z,0.30
2019-05-29T15:19:05.041Z,0.50
2019-05-29T15:21:34.735Z,0.65
2019-05-29T15:24:03.742Z,0.30
2019-05-29T15:26:32.650Z,0.30
2019-05-29T15:29:01.703Z,0.23
2019-05-29T15:31:30.520Z,0.30
2019-05-29T15:33:59.414Z,0.40
2019-05-29T15:36:28.367Z,0.27
2019-05-29T15:38:57.288Z,0.20
2019-05-29T15:41:26.249Z,0.40
2019-05-29T15:43:55.069Z,0.30
2019-05-29T15:46:23.957Z,0.63
2019-05-29T15:48:53.024Z,0.40
2019-05-29T15:51:22.056Z,0.40
2019-05-29T15:53:51.072Z,0.67
2019-05-29T15:56:27.453Z,0.30
2019-05-29T15:58:50.907Z,0.30
2019-05-29T16:01:19.821Z,0.30
2019-05-29T16:03:48.860Z,0.40
2019-05-29T16:06:18.068Z,0.70
2019-05-29T16:08:47.028Z,0.67
2019-05-29T16:11:16.773Z,0.63
2019-05-29T16:13:45.967Z,0.40
2019-05-29T16:16:15.347Z,0.50
2019-05-29T16:18:44.349Z,0.70
2019-05-29T16:21:14.597Z,0.70
2019-05-29T16:23:43.684Z,0.60
2019-05-29T16:26:15.136Z,0.60
2019-05-29T16:28:44.103Z,0.47
2019-05-29T16:31:14.748Z,0.30
2019-05-29T16:33:44.027Z,0.30
2019-05-29T16:36:14.468Z,0.40
2019-05-29T16:38:43.335Z,0.53
2019-05-29T16:41:13.671Z,0.60
2019-05-29T16:43:42.859Z,0.50
2019-05-29T16:46:15.505Z,0.60
2019-05-29T16:48:42.532Z,0.30
2019-05-29T16:51:12.563Z,0.40
2019-05-29T16:53:41.564Z,0.93
2019-05-29T16:56:10.607Z,0.50
2019-05-29T16:58:41.164Z,1.15
2019-05-29T17:01:10.193Z,1.32
2019-05-29T17:03:39.237Z,1.17
2019-05-29T17:06:08.282Z,0.80
2019-05-29T17:08:37.265Z,1.65
2019-05-29T17:11:08.097Z,1.20
2019-05-29T17:13:37.022Z,1.20
2019-05-29T17:16:06.027Z,1.85
2019-05-29T17:18:34.956Z,5.53
2019-05-29T17:21:04.073Z,2.73
2019-05-29T17:23:33.116Z,1.40
2019-05-29T17:26:10.512Z,3.05
2019-05-29T17:28:32.917Z,2.42
2019-05-29T17:31:02.607Z,2.30
2019-05-29T17:33:31.704Z,1.27
2019-05-29T17:36:00.657Z,2.50
2019-05-29T17:38:29.740Z,1.50
2019-05-29T17:40:58.757Z,1.82
2019-05-29T17:43:28.707Z,0.80
2019-05-29T17:45:57.932Z,1.63
2019-05-29T17:48:26.838Z,1.50
2019-05-29T17:50:56.274Z,1.10
2019-05-29T17:53:26.215Z,1.50
2019-05-29T17:55:55.187Z,1.03
2019-05-29T17:58:25.013Z,0.83
2019-05-29T18:00:55.031Z,1.87
2019-05-29T18:03:24.254Z,1.60
2019-05-29T18:05:53.389Z,1.30
2019-05-29T18:08:22.908Z,1.47
2019-05-29T18:10:52.102Z,1.10
2019-05-29T18:13:21.536Z,1.17
2019-05-29T18:15:50.603Z,2.83
2019-05-29T18:18:19.551Z,2.93
2019-05-29T18:20:48.954Z,1.23
2019-05-29T18:23:19.820Z,1.00
2019-05-29T18:25:49.171Z,1.63
2019-05-29T18:28:18.086Z,1.80
2019-05-29T18:30:47.118Z,0.90
2019-05-29T18:33:16.186Z,1.00
2019-05-29T18:35:45.237Z,1.27
2019-05-29T18:38:14.420Z,1.03
2019-05-29T18:40:43.407Z,0.93
2019-05-29T18:43:13.464Z,1.20
2019-05-29T18:45:42.472Z,1.00
2019-05-29T18:48:11.981Z,0.90
2019-05-29T18:50:44.220Z,1.23
2019-05-29T18:53:11.953Z,1.20
2019-05-29T18:55:40.831Z,0.77
2019-05-29T18:58:09.777Z,1.23
2019-05-29T19:00:38.745Z,1.10
2019-05-29T19:03:07.750Z,2.07
2019-05-29T19:05:36.739Z,1.10
2019-05-29T19:08:05.904Z,1.27
2019-05-29T19:10:34.822Z,1.07
2019-05-29T19:13:03.891Z,1.90
2019-05-29T19:15:32.904Z,1.20
2019-05-29T19:18:02.115Z,1.10
2019-05-29T19:20:32.570Z,1.43
2019-05-29T19:23:01.671Z,1.20
2019-05-29T19:25:30.894Z,1.33
2019-05-29T19:27:59.907Z,2.30
2019-05-29T19:30:29.415Z,2.00
2019-05-29T19:32:58.544Z,2.13
2019-05-29T19:35:27.707Z,1.87
2019-05-29T19:37:56.640Z,2.17
2019-05-29T19:40:26.038Z,1.70
2019-05-29T19:42:56.239Z,2.33
2019-05-29T19:45:26.466Z,3.20
2019-05-29T19:47:55.476Z,2.30
2019-05-29T19:50:24.713Z,1.97
2019-05-29T19:52:53.624Z,2.43
2019-05-29T19:55:22.680Z,9.30
2019-05-29T19:57:56.145Z,2.87
2019-05-29T20:00:23.319Z,3.07
2019-05-29T20:02:52.635Z,2.30
2019-05-29T20:05:21.590Z,1.80
2019-05-29T20:07:50.667Z,1.77
2019-05-29T20:10:21.351Z,2.60
2019-05-29T20:12:52.082Z,2.83
2019-05-29T20:15:21.376Z,3.47
2019-05-29T20:17:50.482Z,2.13
2019-05-29T20:20:19.676Z,2.50
2019-05-29T20:22:48.667Z,2.17
2019-05-29T20:25:18.137Z,2.10
2019-05-29T20:27:47.273Z,2.00
2019-05-29T20:30:27.578Z,1.60
2019-05-29T20:32:56.876Z,1.50
2019-05-29T20:35:25.959Z,1.80
2019-05-29T20:37:55.033Z,1.47
2019-05-29T20:40:24.183Z,1.20
2019-05-29T20:42:55.709Z,1.10
2019-05-29T20:45:25.162Z,1.05
2019-05-29T20:47:54.243Z,1.07
2019-05-29T20:50:23.390Z,1.20
2019-05-29T20:52:52.214Z,1.20
2019-05-29T20:55:21.188Z,1.43
2019-05-29T20:57:49.970Z,1.50
2019-05-29T21:00:19.419Z,1.97
2019-05-29T21:02:48.274Z,1.63
2019-05-29T21:05:17.242Z,1.27
2019-05-29T21:07:46.503Z,1.20
2019-05-29T21:10:16.758Z,1.33
2019-05-29T21:12:47.597Z,1.47
2019-05-29T21:15:16.627Z,1.90
2019-05-29T21:17:45.990Z,2.07
2019-05-29T21:20:16.143Z,1.80
2019-05-29T21:22:45.098Z,2.20
2019-05-29T21:25:18.993Z,1.53
2019-05-29T21:27:48.759Z,1.70
2019-05-29T21:30:18.595Z,1.17
2019-05-29T21:32:47.775Z,1.50
2019-05-29T21:35:16.991Z,1.53
2019-05-29T21:37:46.647Z,1.97
2019-05-29T21:40:15.928Z,2.00
2019-05-29T21:42:44.951Z,2.00
2019-05-29T21:45:13.842Z,1.60
2019-05-29T21:47:43.546Z,1.73
2019-05-29T21:50:13.326Z,1.80
2019-05-29T21:52:43.631Z,1.40
2019-05-29T21:55:13.147Z,1.63
2019-05-29T21:57:45.064Z,2.00
2019-05-29T22:00:15.814Z,1.60
2019-05-29T22:02:46.426Z,1.40
2019-05-29T22:05:15.827Z,1.77
2019-05-29T22:07:45.085Z,1.57
2019-05-29T22:10:14.696Z,1.57
2019-05-29T22:12:43.587Z,2.17
2019-05-29T22:15:12.937Z,1.90
2019-05-29T22:17:41.872Z,1.73
2019-05-29T22:20:11.221Z,1.50
2019-05-29T22:22:40.349Z,1.63
2019-05-29T22:25:10.123Z,2.10
2019-05-29T22:27:38.972Z,1.90
2019-05-29T22:30:09.726Z,2.03
2019-05-29T22:32:38.596Z,1.60
2019-05-29T22:35:07.993Z,1.73
2019-05-29T22:37:37.255Z,1.40
2019-05-29T22:40:06.531Z,1.40
2019-05-29T22:42:35.774Z,1.67
2019-05-29T22:45:05.088Z,1.70
2019-05-29T22:47:34.051Z,1.70
2019-05-29T22:50:03.238Z,1.73
2019-05-29T22:52:32.239Z,1.70
2019-05-29T22:55:02.355Z,1.60
2019-05-29T22:57:31.364Z,2.13
2019-05-29T23:00:00.264Z,1.70
2019-05-29T23:02:29.288Z,1.80
2019-05-29T23:04:58.603Z,2.00
2019-05-29T23:07:27.688Z,1.77
2019-05-29T23:09:56.689Z,2.37
2019-05-29T23:12:25.591Z,1.67
2019-05-29T23:14:54.615Z,1.67
2019-05-29T23:17:23.615Z,1.87
2019-05-29T23:19:52.531Z,2.27
2019-05-29T23:22:24.491Z,2.10
2019-05-29T23:24:52.619Z,2.20
2019-05-29T23:27:21.806Z,2.20
2019-05-29T23:29:50.696Z,2.27
2019-05-29T23:32:19.722Z,1.93
2019-05-29T23:34:48.730Z,2.57
2019-05-29T23:37:17.780Z,2.10
2019-05-29T23:39:50.655Z,2.17
2019-05-29T23:42:19.602Z,1.83
2019-05-29T23:44:51.712Z,2.00
2019-05-29T23:47:19.202Z,2.50
2019-05-29T23:49:48.063Z,2.00
2019-05-29T23:52:16.949Z,1.98
2019-05-29T23:54:45.899Z,2.00
2019-05-29T23:57:15.042Z,2.30
2019-05-29T23:59:44.027Z,2.87
